createdAt,value
2023-07-01T00:00:10.583Z,51.63
2023-07-01T00:01:14.277Z,51.60
2023-07-01T00:02:18.027Z,51.47
2023-07-01T00:03:21.751Z,51.66
2023-07-01T00:04:25.548Z,51.38
2023-07-01T00:05:29.219Z,51.63
2023-07-01T00:06:33.004Z,51.80
2023-07-01T00:07:36.709Z,51.40
2023-07-01T00:08:40.379Z,51.16
2023-07-01T00:09:44.042Z,51.72
2023-07-01T00:10:48.101Z,51.52
2023-07-01T00:11:51.958Z,51.55
2023-07-01T00:12:55.705Z,51.17
2023-07-01T00:13:59.337Z,51.57
2023-07-01T00:15:05.207Z,52.52
2023-07-01T00:16:08.928Z,51.28
2023-07-01T00:17:12.644Z,51.76
2023-07-01T00:18:16.323Z,51.24
2023-07-01T00:19:20.059Z,51.65
2023-07-01T00:20:23.834Z,51.70
2023-07-01T00:21:27.537Z,51.22
2023-07-01T00:22:31.212Z,51.88
2023-07-01T00:23:34.887Z,51.58
2023-07-01T00:24:38.666Z,51.79
2023-07-01T00:25:42.464Z,51.44
2023-07-01T00:26:46.195Z,51.76
2023-07-01T00:27:49.888Z,51.62
2023-07-01T00:28:54.766Z,51.17
2023-07-01T00:29:58.430Z,51.30
2023-07-01T00:31:03.955Z,52.45
2023-07-01T00:32:08.822Z,52.06
2023-07-01T00:33:12.594Z,51.98
2023-07-01T00:34:16.271Z,51.63
2023-07-01T00:35:19.951Z,51.57
2023-07-01T00:36:23.655Z,51.93
2023-07-01T00:37:27.315Z,51.45
2023-07-01T00:38:31.007Z,51.50
2023-07-01T00:39:34.648Z,51.13
2023-07-01T00:40:38.260Z,51.36
2023-07-01T00:41:41.907Z,51.75
2023-07-01T00:42:46.637Z,51.45
2023-07-01T00:44:01.798Z,52.08
2023-07-01T00:45:06.209Z,51.88
2023-07-01T00:46:11.638Z,51.62
2023-07-01T00:47:15.795Z,51.30
2023-07-01T00:48:24.559Z,52.03
2023-07-01T00:49:28.291Z,51.56
2023-07-01T00:50:32.655Z,51.59
2023-07-01T00:51:36.742Z,51.62
2023-07-01T00:52:41.272Z,51.42
2023-07-01T00:53:45.040Z,51.75
2023-07-01T00:54:48.903Z,51.23
2023-07-01T00:55:53.499Z,51.43
2023-07-01T00:56:57.444Z,51.43
2023-07-01T00:58:01.209Z,51.48
2023-07-01T00:59:04.965Z,51.11
2023-07-01T01:00:10.407Z,51.26
2023-07-01T01:01:20.585Z,52.34
2023-07-01T01:02:27.543Z,51.37
2023-07-01T01:03:36.086Z,52.04
2023-07-01T01:04:48.323Z,52.35
2023-07-01T01:05:57.318Z,51.90
2023-07-01T01:07:07.190Z,51.54
2023-07-01T01:08:13.528Z,51.39
2023-07-01T01:09:23.718Z,51.62
2023-07-01T01:10:29.360Z,50.92
2023-07-01T01:11:34.451Z,50.88
2023-07-01T01:12:39.927Z,51.17
2023-07-01T01:13:44.634Z,51.40
2023-07-01T01:14:50.594Z,51.58
2023-07-01T01:15:55.043Z,51.59
2023-07-01T01:17:02.287Z,51.42
2023-07-01T01:18:08.443Z,51.07
2023-07-01T01:19:19.245Z,51.75
2023-07-01T01:20:24.654Z,51.81
2023-07-01T01:21:29.573Z,51.11
2023-07-01T01:22:50.735Z,51.76
2023-07-01T01:24:03.040Z,51.49
2023-07-01T01:25:09.465Z,51.06
2023-07-01T01:26:19.766Z,51.30
2023-07-01T01:27:26.607Z,51.49
2023-07-01T01:28:31.942Z,51.32
2023-07-01T01:29:35.776Z,50.85
2023-07-01T01:30:39.652Z,50.58
2023-07-01T01:31:43.371Z,50.35
2023-07-01T01:32:47.096Z,50.59
2023-07-01T01:33:50.836Z,50.68
2023-07-01T01:34:54.478Z,50.38
2023-07-01T01:36:04.064Z,50.76
2023-07-01T01:37:13.464Z,50.69
2023-07-01T01:38:24.524Z,50.94
2023-07-01T01:39:32.100Z,50.61
2023-07-01T01:40:41.869Z,50.47
2023-07-01T01:41:52.966Z,50.35
2023-07-01T01:43:01.741Z,50.88
2023-07-01T01:44:10.676Z,51.26
2023-07-01T01:45:17.063Z,50.58
2023-07-01T01:46:23.062Z,50.64
2023-07-01T01:47:31.405Z,50.71
2023-07-01T01:48:36.446Z,50.60
2023-07-01T01:49:40.986Z,50.62
2023-07-01T01:50:48.975Z,50.70
2023-07-01T01:51:55.032Z,50.65
2023-07-01T01:52:59.398Z,50.79
2023-07-01T01:54:06.266Z,50.59
2023-07-01T01:55:12.273Z,50.15
2023-07-01T01:56:17.176Z,50.07
2023-07-01T01:57:21.909Z,49.79
2023-07-01T01:58:25.804Z,50.19
2023-07-01T01:59:31.163Z,49.81
2023-07-01T02:00:35.190Z,49.33
2023-07-01T02:01:38.801Z,49.64
2023-07-01T02:02:42.667Z,49.51
2023-07-01T02:03:46.781Z,49.73
2023-07-01T02:04:50.773Z,49.73
2023-07-01T02:05:54.576Z,49.40
2023-07-01T02:06:58.186Z,49.78
2023-07-01T02:08:01.910Z,49.48
2023-07-01T02:09:05.722Z,49.48
2023-07-01T02:10:10.318Z,49.49
2023-07-01T02:11:14.006Z,49.51
2023-07-01T02:12:17.703Z,49.01
2023-07-01T02:13:21.472Z,49.33
2023-07-01T02:14:25.652Z,49.44
2023-07-01T02:15:30.967Z,49.57
2023-07-01T02:16:36.030Z,49.27
2023-07-01T02:17:39.943Z,49.38
2023-07-01T02:18:43.715Z,49.23
2023-07-01T02:19:47.452Z,49.22
2023-07-01T02:20:51.128Z,49.05
2023-07-01T02:21:54.811Z,49.17
2023-07-01T02:22:58.516Z,49.45
2023-07-01T02:24:02.195Z,48.81
2023-07-01T02:25:06.606Z,48.98
2023-07-01T02:26:10.258Z,49.02
2023-07-01T02:27:13.983Z,48.64
2023-07-01T02:28:17.655Z,48.68
2023-07-01T02:29:21.327Z,48.69
2023-07-01T02:30:25.035Z,48.44
2023-07-01T02:31:30.501Z,48.64
2023-07-01T02:32:34.265Z,48.64
2023-07-01T02:33:38.024Z,48.63
2023-07-01T02:34:41.924Z,48.22
2023-07-01T02:35:45.622Z,48.21
2023-07-01T02:36:49.247Z,48.29
2023-07-01T02:37:52.873Z,48.26
2023-07-01T02:38:56.643Z,48.34
2023-07-01T02:40:00.366Z,48.03
2023-07-01T02:41:04.101Z,48.31
2023-07-01T02:42:08.226Z,48.13
2023-07-01T02:43:11.939Z,47.87
2023-07-01T02:44:15.698Z,48.08
2023-07-01T02:45:19.400Z,47.93
2023-07-01T02:46:23.235Z,48.00
2023-07-01T02:47:28.539Z,47.91
2023-07-01T02:48:32.222Z,48.08
2023-07-01T02:49:35.896Z,47.97
2023-07-01T02:50:39.667Z,47.81
2023-07-01T02:51:43.412Z,47.78
2023-07-01T02:52:47.099Z,47.90
2023-07-01T02:53:50.850Z,47.60
2023-07-01T02:54:54.547Z,47.60
2023-07-01T02:55:58.345Z,47.65
2023-07-01T02:57:02.092Z,47.63
2023-07-01T02:58:05.701Z,47.49
2023-07-01T02:59:09.432Z,47.48
2023-07-01T03:00:14.470Z,47.38
2023-07-01T03:01:18.300Z,47.34
2023-07-01T03:02:22.027Z,47.33
2023-07-01T03:03:27.549Z,47.21
2023-07-01T03:04:31.461Z,47.19
2023-07-01T03:05:35.419Z,47.35
2023-07-01T03:06:39.095Z,47.06
2023-07-01T03:07:42.717Z,47.21
2023-07-01T03:08:46.397Z,47.04
2023-07-01T03:09:50.019Z,47.14
2023-07-01T03:10:53.689Z,46.68
2023-07-01T03:11:57.842Z,46.75
2023-07-01T03:13:01.536Z,46.42
2023-07-01T03:14:05.369Z,46.60
2023-07-01T03:15:09.705Z,46.25
2023-07-01T03:16:13.628Z,46.73
2023-07-01T03:17:17.732Z,46.17
2023-07-01T03:18:21.564Z,46.15
2023-07-01T03:19:26.911Z,46.07
2023-07-01T03:20:30.571Z,45.92
2023-07-01T03:21:34.289Z,46.31
2023-07-01T03:22:37.955Z,46.17
2023-07-01T03:23:41.698Z,46.13
2023-07-01T03:24:45.382Z,45.97
2023-07-01T03:25:49.071Z,45.52
2023-07-01T03:26:52.775Z,45.38
2023-07-01T03:27:56.760Z,45.39
2023-07-01T03:29:00.532Z,45.35
2023-07-01T03:30:04.216Z,45.32
2023-07-01T03:31:07.861Z,45.68
2023-07-01T03:32:11.724Z,45.57
2023-07-01T03:33:15.523Z,45.21
2023-07-01T03:34:19.704Z,45.57
2023-07-01T03:35:25.521Z,44.69
2023-07-01T03:36:29.191Z,45.54
2023-07-01T03:37:32.908Z,45.55
2023-07-01T03:38:36.651Z,45.44
2023-07-01T03:39:40.298Z,45.01
2023-07-01T03:40:44.098Z,45.63
2023-07-01T03:41:47.974Z,45.60
2023-07-01T03:42:51.784Z,45.71
2023-07-01T03:43:55.517Z,44.93
2023-07-01T03:44:59.276Z,45.05
2023-07-01T03:46:03.202Z,45.36
2023-07-01T03:47:07.192Z,44.68
2023-07-01T03:48:10.910Z,45.22
2023-07-01T03:49:14.788Z,45.09
2023-07-01T03:50:18.682Z,45.14
2023-07-01T03:51:23.961Z,44.75
2023-07-01T03:52:27.692Z,44.14
2023-07-01T03:53:31.373Z,43.89
2023-07-01T03:54:35.083Z,44.32
2023-07-01T03:55:38.979Z,44.38
2023-07-01T03:56:42.681Z,44.12
2023-07-01T03:57:46.344Z,43.71
2023-07-01T03:58:50.032Z,44.11
2023-07-01T03:59:53.644Z,44.23
2023-07-01T04:00:57.354Z,43.79
2023-07-01T04:02:01.087Z,43.32
2023-07-01T04:03:04.966Z,43.32
2023-07-01T04:04:08.846Z,43.80
2023-07-01T04:05:12.603Z,42.99
2023-07-01T04:06:16.353Z,42.79
2023-07-01T04:07:21.737Z,43.33
2023-07-01T04:08:25.394Z,43.30
2023-07-01T04:09:28.999Z,42.97
2023-07-01T04:10:32.631Z,42.90
2023-07-01T04:11:36.420Z,43.38
2023-07-01T04:12:41.220Z,42.91
2023-07-01T04:13:45.012Z,43.03
2023-07-01T04:14:48.697Z,43.31
2023-07-01T04:15:52.415Z,42.60
2023-07-01T04:16:56.119Z,43.82
2023-07-01T04:17:59.933Z,43.64
2023-07-01T04:19:03.749Z,44.09
2023-07-01T04:20:08.222Z,43.77
2023-07-01T04:21:11.922Z,44.16
2023-07-01T04:22:15.639Z,44.28
2023-07-01T04:23:20.910Z,43.19
2023-07-01T04:24:24.535Z,43.81
2023-07-01T04:25:28.279Z,43.95
2023-07-01T04:26:31.937Z,44.19
2023-07-01T04:27:35.954Z,44.03
2023-07-01T04:28:39.743Z,44.13
2023-07-01T04:29:43.444Z,43.58
2023-07-01T04:30:47.421Z,43.94
2023-07-01T04:31:51.266Z,43.63
2023-07-01T04:32:54.998Z,43.75
2023-07-01T04:33:58.716Z,43.98
2023-07-01T04:35:02.955Z,44.30
2023-07-01T04:36:06.757Z,43.82
2023-07-01T04:37:10.497Z,44.13
2023-07-01T04:38:14.168Z,43.85
2023-07-01T04:39:20.623Z,43.71
2023-07-01T04:40:24.367Z,43.83
2023-07-01T04:41:28.070Z,43.49
2023-07-01T04:42:31.714Z,43.91
2023-07-01T04:43:35.546Z,43.49
2023-07-01T04:44:39.193Z,43.80
2023-07-01T04:45:44.019Z,43.85
2023-07-01T04:46:47.771Z,43.87
2023-07-01T04:47:51.603Z,43.75
2023-07-01T04:48:55.282Z,44.04
2023-07-01T04:49:59.005Z,43.98
2023-07-01T04:51:02.736Z,43.57
2023-07-01T04:52:06.955Z,43.45
2023-07-01T04:53:13.077Z,43.68
2023-07-01T04:54:18.362Z,43.49
2023-07-01T04:55:22.096Z,43.51
2023-07-01T04:56:26.843Z,43.86
2023-07-01T04:57:30.483Z,44.17
2023-07-01T04:58:34.168Z,43.85
2023-07-01T04:59:37.923Z,43.92
2023-07-01T05:00:41.557Z,43.65
2023-07-01T05:01:45.317Z,43.72
2023-07-01T05:02:49.434Z,44.21
2023-07-01T05:03:53.385Z,43.69
2023-07-01T05:04:57.180Z,44.08
2023-07-01T05:06:01.010Z,43.65
2023-07-01T05:07:05.061Z,43.90
2023-07-01T05:08:08.803Z,43.89
2023-07-01T05:09:12.490Z,43.73
2023-07-01T05:10:18.010Z,43.78
2023-07-01T05:11:21.862Z,43.86
2023-07-01T05:12:25.615Z,44.25
2023-07-01T05:13:29.259Z,43.82
2023-07-01T05:14:32.991Z,43.74
2023-07-01T05:15:36.615Z,44.05
2023-07-01T05:16:40.317Z,43.95
2023-07-01T05:17:44.587Z,43.54
2023-07-01T05:18:48.276Z,42.76
2023-07-01T05:19:52.010Z,43.20
2023-07-01T05:20:55.738Z,43.17
2023-07-01T05:21:59.431Z,42.98
2023-07-01T05:23:03.213Z,42.96
2023-07-01T05:24:07.248Z,42.97
2023-07-01T05:25:11.096Z,43.11
2023-07-01T05:26:16.412Z,42.88
2023-07-01T05:27:20.069Z,42.66
2023-07-01T05:28:23.762Z,42.96
2023-07-01T05:29:27.419Z,43.19
2023-07-01T05:30:31.140Z,42.81
2023-07-01T05:31:34.860Z,42.64
2023-07-01T05:32:38.613Z,42.91
2023-07-01T05:33:45.090Z,42.59
2023-07-01T05:34:48.809Z,42.88
2023-07-01T05:35:52.425Z,42.24
2023-07-01T05:36:57.110Z,42.69
2023-07-01T05:38:07.600Z,42.78
2023-07-01T05:39:11.283Z,42.74
2023-07-01T05:40:15.250Z,42.52
2023-07-01T05:41:20.572Z,43.30
2023-07-01T05:42:24.244Z,43.31
2023-07-01T05:43:27.884Z,42.59
2023-07-01T05:44:31.564Z,43.60
2023-07-01T05:45:35.265Z,43.11
2023-07-01T05:46:39.002Z,42.84
2023-07-01T05:47:42.725Z,43.51
2023-07-01T05:48:46.380Z,42.93
2023-07-01T05:49:50.088Z,42.86
2023-07-01T05:50:53.826Z,42.79
2023-07-01T05:51:57.462Z,42.73
2023-07-01T05:53:01.158Z,42.95
2023-07-01T05:54:04.902Z,42.80
2023-07-01T05:55:09.715Z,41.99
2023-07-01T05:56:13.596Z,42.99
2023-07-01T05:57:18.904Z,42.79
2023-07-01T05:58:22.561Z,42.16
2023-07-01T05:59:26.339Z,42.13
2023-07-01T06:00:29.990Z,42.61
2023-07-01T06:01:33.812Z,41.92
2023-07-01T06:02:37.595Z,42.19
2023-07-01T06:03:41.316Z,41.64
2023-07-01T06:04:44.982Z,41.72
2023-07-01T06:05:48.771Z,41.95
2023-07-01T06:06:52.485Z,40.99
2023-07-01T06:07:56.158Z,41.30
2023-07-01T06:08:59.833Z,41.46
2023-07-01T06:10:03.538Z,40.92
2023-07-01T06:11:07.276Z,40.83
2023-07-01T06:12:12.120Z,40.53
2023-07-01T06:13:17.471Z,39.31
2023-07-01T06:14:21.110Z,39.94
2023-07-01T06:15:24.882Z,39.61
2023-07-01T06:16:28.605Z,40.52
2023-07-01T06:17:32.599Z,40.00
2023-07-01T06:18:36.345Z,39.97
2023-07-01T06:19:40.001Z,40.38
2023-07-01T06:20:43.896Z,40.06
2023-07-01T06:21:47.719Z,39.85
2023-07-01T06:22:51.367Z,40.16
2023-07-01T06:23:56.561Z,39.19
2023-07-01T06:25:00.244Z,39.73
2023-07-01T06:26:04.001Z,39.66
2023-07-01T06:27:07.729Z,39.74
2023-07-01T06:28:11.373Z,40.06
2023-07-01T06:29:16.821Z,39.70
2023-07-01T06:30:20.621Z,39.78
2023-07-01T06:31:24.322Z,39.81
2023-07-01T06:32:28.996Z,39.40
2023-07-01T06:33:32.884Z,39.55
2023-07-01T06:34:36.570Z,39.53
2023-07-01T06:35:40.249Z,38.96
2023-07-01T06:36:43.985Z,39.70
2023-07-01T06:37:47.690Z,38.91
2023-07-01T06:38:51.327Z,39.41
2023-07-01T06:39:55.006Z,39.29
2023-07-01T06:40:58.712Z,39.07
2023-07-01T06:42:02.376Z,39.05
2023-07-01T06:43:06.246Z,38.97
2023-07-01T06:44:09.965Z,39.28
2023-07-01T06:45:15.380Z,38.63
2023-07-01T06:46:21.090Z,38.57
2023-07-01T06:47:24.870Z,38.60
2023-07-01T06:48:28.581Z,38.54
2023-07-01T06:49:32.218Z,38.99
2023-07-01T06:50:36.060Z,38.93
2023-07-01T06:51:39.789Z,38.54
2023-07-01T06:52:43.473Z,38.60
2023-07-01T06:53:47.156Z,38.65
2023-07-01T06:54:50.836Z,38.57
2023-07-01T06:55:54.545Z,38.94
2023-07-01T06:56:58.245Z,38.44
2023-07-01T06:58:03.278Z,38.72
2023-07-01T06:59:06.997Z,38.57
2023-07-01T07:00:13.013Z,38.66
2023-07-01T07:01:18.371Z,38.82
2023-07-01T07:02:23.692Z,38.24
2023-07-01T07:03:27.773Z,38.64
2023-07-01T07:04:31.546Z,38.29
2023-07-01T07:05:35.268Z,38.75
2023-07-01T07:06:38.902Z,38.15
2023-07-01T07:07:42.576Z,38.53
2023-07-01T07:08:46.254Z,38.61
2023-07-01T07:09:49.984Z,38.91
2023-07-01T07:10:53.617Z,38.63
2023-07-01T07:11:57.300Z,39.17
2023-07-01T07:13:01.024Z,38.90
2023-07-01T07:14:04.689Z,38.25
2023-07-01T07:15:09.582Z,38.81
2023-07-01T07:16:13.393Z,38.34
2023-07-01T07:17:18.961Z,38.08
2023-07-01T07:18:22.813Z,38.37
2023-07-01T07:19:26.627Z,38.12
2023-07-01T07:20:30.480Z,38.31
2023-07-01T07:21:35.611Z,38.37
2023-07-01T07:22:39.364Z,38.85
2023-07-01T07:23:43.025Z,38.03
2023-07-01T07:24:46.681Z,38.25
2023-07-01T07:25:50.339Z,38.33
2023-07-01T07:26:57.167Z,38.12
2023-07-01T07:28:01.384Z,38.42
2023-07-01T07:29:05.299Z,38.91
2023-07-01T07:30:10.062Z,38.12
2023-07-01T07:31:13.731Z,38.68
2023-07-01T07:32:19.022Z,38.08
2023-07-01T07:33:22.747Z,38.36
2023-07-01T07:34:26.845Z,38.96
2023-07-01T07:35:30.512Z,38.33
2023-07-01T07:36:34.259Z,38.82
2023-07-01T07:37:38.337Z,38.99
2023-07-01T07:38:42.073Z,39.13
2023-07-01T07:39:45.699Z,38.60
2023-07-01T07:40:49.669Z,39.17
2023-07-01T07:41:53.543Z,38.74
2023-07-01T07:42:57.204Z,39.38
2023-07-01T07:44:00.912Z,39.06
2023-07-01T07:45:05.113Z,39.11
2023-07-01T07:46:08.829Z,39.57
2023-07-01T07:47:12.550Z,39.66
2023-07-01T07:48:28.430Z,39.05
2023-07-01T07:49:32.054Z,39.50
2023-07-01T07:50:36.254Z,39.48
2023-07-01T07:51:40.106Z,39.90
2023-07-01T07:52:43.805Z,39.59
2023-07-01T07:53:47.570Z,40.03
2023-07-01T07:54:51.312Z,39.56
2023-07-01T07:55:54.990Z,39.61
2023-07-01T07:56:58.665Z,39.75
2023-07-01T07:58:02.691Z,39.70
2023-07-01T07:59:06.376Z,39.96
2023-07-01T08:00:11.220Z,39.18
2023-07-01T08:01:15.115Z,40.20
2023-07-01T08:02:18.851Z,40.06
2023-07-01T08:03:24.406Z,39.73
2023-07-01T08:04:28.667Z,39.36
2023-07-01T08:05:32.566Z,40.17
2023-07-01T08:06:36.400Z,39.66
2023-07-01T08:07:40.207Z,39.72
2023-07-01T08:08:43.862Z,39.83
2023-07-01T08:09:47.537Z,39.89
2023-07-01T08:10:51.249Z,40.18
2023-07-01T08:11:55.308Z,40.04
2023-07-01T08:12:59.072Z,39.88
2023-07-01T08:14:02.789Z,39.88
2023-07-01T08:15:09.476Z,40.20
2023-07-01T08:16:13.369Z,40.48
2023-07-01T08:17:17.028Z,40.47
2023-07-01T08:18:20.893Z,40.26
2023-07-01T08:19:26.261Z,40.19
2023-07-01T08:20:29.953Z,39.87
2023-07-01T08:21:33.635Z,40.27
2023-07-01T08:22:37.423Z,39.93
2023-07-01T08:23:41.088Z,39.51
2023-07-01T08:24:44.740Z,40.46
2023-07-01T08:25:48.719Z,39.95
2023-07-01T08:26:52.463Z,40.79
2023-07-01T08:27:56.389Z,40.12
2023-07-01T08:29:00.055Z,40.11
2023-07-01T08:30:03.769Z,40.32
2023-07-01T08:31:07.520Z,39.67
2023-07-01T08:32:11.373Z,40.09
2023-07-01T08:33:15.077Z,39.88
2023-07-01T08:34:18.814Z,39.33
2023-07-01T08:35:24.101Z,40.02
2023-07-01T08:36:27.886Z,39.51
2023-07-01T08:37:38.740Z,39.75
2023-07-01T08:38:42.498Z,39.27
2023-07-01T08:39:46.166Z,39.95
2023-07-01T08:40:50.690Z,39.86
2023-07-01T08:41:58.963Z,39.41
2023-07-01T08:43:05.623Z,39.68
2023-07-01T08:44:12.558Z,39.58
2023-07-01T08:45:16.381Z,39.39
2023-07-01T08:46:20.358Z,40.31
2023-07-01T08:47:26.987Z,39.75
2023-07-01T08:48:33.488Z,40.44
2023-07-01T08:49:42.019Z,40.18
2023-07-01T08:50:53.662Z,39.59
2023-07-01T08:52:06.302Z,39.50
2023-07-01T08:53:10.608Z,39.83
2023-07-01T08:54:15.543Z,39.88
2023-07-01T08:55:19.532Z,40.57
2023-07-01T08:56:24.058Z,40.35
2023-07-01T08:57:27.878Z,40.64
2023-07-01T08:58:32.215Z,40.71
2023-07-01T08:59:35.960Z,40.30
2023-07-01T09:00:39.888Z,40.58
2023-07-01T09:01:44.963Z,40.84
2023-07-01T09:02:50.974Z,40.52
2023-07-01T09:03:55.517Z,40.06
2023-07-01T09:05:00.801Z,39.95
2023-07-01T09:06:06.517Z,40.49
2023-07-01T09:07:11.221Z,39.69
2023-07-01T09:08:14.989Z,40.07
2023-07-01T09:09:18.711Z,40.08
2023-07-01T09:10:22.433Z,40.10
2023-07-01T09:11:26.205Z,40.42
2023-07-01T09:12:30.289Z,40.34
2023-07-01T09:13:34.072Z,40.22
2023-07-01T09:15:02.614Z,40.19
2023-07-01T09:16:06.656Z,40.54
2023-07-01T09:17:28.508Z,40.16
2023-07-01T09:18:32.609Z,40.49
2023-07-01T09:19:50.491Z,40.17
2023-07-01T09:20:54.935Z,40.48
2023-07-01T09:22:10.129Z,40.20
2023-07-01T09:23:26.053Z,40.33
2023-07-01T09:24:39.033Z,39.53
2023-07-01T09:25:42.668Z,40.51
2023-07-01T09:26:54.693Z,40.21
2023-07-01T09:27:58.397Z,40.19
2023-07-01T09:29:08.914Z,40.08
2023-07-01T09:30:28.669Z,39.32
2023-07-01T09:31:45.907Z,40.31
2023-07-01T09:32:49.946Z,40.74
2023-07-01T09:34:01.857Z,40.78
2023-07-01T09:35:06.163Z,39.99
2023-07-01T09:36:10.190Z,40.53
2023-07-01T09:37:24.313Z,39.80
2023-07-01T09:38:28.029Z,40.41
2023-07-01T09:39:34.569Z,39.39
2023-07-01T09:40:38.228Z,40.82
2023-07-01T09:41:42.033Z,40.13
2023-07-01T09:42:52.374Z,39.41
2023-07-01T09:43:57.475Z,39.96
2023-07-01T09:45:11.317Z,39.34
2023-07-01T09:46:15.036Z,39.82
2023-07-01T09:47:27.406Z,39.75
2023-07-01T09:48:31.164Z,39.81
2023-07-01T09:49:45.240Z,39.78
2023-07-01T09:50:50.351Z,39.92
2023-07-01T09:51:54.242Z,39.89
2023-07-01T09:52:59.709Z,40.19
2023-07-01T09:54:03.423Z,39.91
2023-07-01T09:55:09.782Z,39.93
2023-07-01T09:56:16.574Z,39.38
2023-07-01T09:57:20.357Z,40.62
2023-07-01T09:58:24.468Z,40.11
2023-07-01T09:59:28.985Z,40.16
2023-07-01T10:00:32.958Z,40.12
2023-07-01T10:01:36.920Z,40.16
2023-07-01T10:02:41.449Z,40.62
2023-07-01T10:03:46.078Z,40.30
2023-07-01T10:04:49.888Z,40.62
2023-07-01T10:05:53.941Z,40.10
2023-07-01T10:06:58.062Z,39.92
2023-07-01T10:08:03.424Z,40.42
2023-07-01T10:09:07.071Z,40.60
2023-07-01T10:10:14.878Z,40.27
2023-07-01T10:11:21.456Z,40.51
2023-07-01T10:12:25.811Z,40.71
2023-07-01T10:13:31.134Z,40.31
2023-07-01T10:14:37.028Z,40.42
2023-07-01T10:15:41.498Z,40.70
2023-07-01T10:16:48.824Z,40.06
2023-07-01T10:17:54.344Z,40.26
2023-07-01T10:18:58.158Z,40.21
2023-07-01T10:20:29.420Z,39.94
2023-07-01T10:21:33.160Z,40.57
2023-07-01T10:22:37.540Z,40.62
2023-07-01T10:23:47.849Z,40.66
2023-07-01T10:25:01.580Z,40.76
2023-07-01T10:26:38.068Z,40.25
2023-07-01T10:28:10.527Z,40.52
2023-07-01T10:29:41.832Z,40.74
2023-07-01T10:31:15.890Z,41.24
2023-07-01T10:32:32.109Z,41.11
2023-07-01T10:34:05.508Z,41.14
2023-07-01T10:35:16.369Z,41.25
2023-07-01T10:36:20.112Z,40.85
2023-07-01T10:37:25.039Z,40.89
2023-07-01T10:38:28.963Z,40.95
2023-07-01T10:39:35.326Z,41.54
2023-07-01T10:40:45.977Z,41.80
2023-07-01T10:41:53.911Z,41.45
2023-07-01T10:43:23.094Z,41.59
2023-07-01T10:44:27.412Z,41.21
2023-07-01T10:45:40.881Z,41.77
2023-07-01T10:46:44.737Z,41.37
2023-07-01T10:48:14.939Z,41.90
2023-07-01T10:49:19.147Z,42.02
2023-07-01T10:50:24.094Z,41.95
2023-07-01T10:51:27.878Z,42.02
2023-07-01T10:52:32.527Z,42.57
2023-07-01T10:54:00.428Z,43.21
2023-07-01T10:55:39.202Z,43.14
2023-07-01T10:57:03.343Z,42.50
2023-07-01T10:58:23.700Z,43.52
2023-07-01T10:59:27.772Z,42.73
2023-07-01T11:00:38.909Z,43.40
2023-07-01T11:01:46.853Z,43.00
2023-07-01T11:02:50.584Z,42.85
2023-07-01T11:03:58.925Z,43.39
2023-07-01T11:05:08.588Z,43.46
2023-07-01T11:06:13.225Z,43.34
2023-07-01T11:07:24.924Z,44.32
2023-07-01T11:08:29.037Z,43.16
2023-07-01T11:09:34.421Z,43.57
2023-07-01T11:10:45.073Z,43.67
2023-07-01T11:11:48.777Z,43.56
2023-07-01T11:12:52.613Z,43.54
2023-07-01T11:14:00.980Z,43.89
2023-07-01T11:15:05.055Z,43.85
2023-07-01T11:16:10.867Z,43.96
2023-07-01T11:17:16.064Z,43.94
2023-07-01T11:18:19.902Z,44.20
2023-07-01T11:19:23.561Z,43.67
2023-07-01T11:20:27.262Z,43.91
2023-07-01T11:21:31.469Z,43.98
2023-07-01T11:22:35.212Z,43.89
2023-07-01T11:23:39.041Z,44.11
2023-07-01T11:24:43.003Z,44.00
2023-07-01T11:25:49.177Z,44.21
2023-07-01T11:26:53.286Z,44.11
2023-07-01T11:27:57.059Z,44.32
2023-07-01T11:29:01.330Z,44.12
2023-07-01T11:30:05.401Z,44.28
2023-07-01T11:31:16.146Z,44.50
2023-07-01T11:32:20.021Z,44.30
2023-07-01T11:33:23.843Z,44.30
2023-07-01T11:34:27.683Z,44.39
2023-07-01T11:35:50.785Z,44.92
2023-07-01T11:36:54.522Z,44.72
2023-07-01T11:37:58.284Z,44.65
2023-07-01T11:39:06.663Z,45.02
2023-07-01T11:40:11.545Z,44.74
2023-07-01T11:41:18.776Z,44.52
2023-07-01T11:42:22.571Z,44.57
2023-07-01T11:43:26.368Z,44.51
2023-07-01T11:44:31.246Z,44.64
2023-07-01T11:45:47.154Z,45.33
2023-07-01T11:46:51.674Z,44.61
2023-07-01T11:47:55.625Z,44.63
2023-07-01T11:48:59.477Z,44.59
2023-07-01T11:50:05.918Z,45.25
2023-07-01T11:51:09.670Z,44.75
2023-07-01T11:52:24.827Z,45.11
2023-07-01T11:53:28.870Z,44.86
2023-07-01T11:54:45.626Z,45.67
2023-07-01T11:55:49.378Z,44.89
2023-07-01T11:57:09.723Z,45.84
2023-07-01T11:58:27.561Z,45.18
2023-07-01T11:59:31.882Z,44.85
2023-07-01T12:00:40.713Z,45.57
2023-07-01T12:01:44.589Z,45.60
2023-07-01T12:02:54.781Z,45.90
2023-07-01T12:03:58.819Z,45.63
2023-07-01T12:05:03.143Z,45.73
2023-07-01T12:06:06.807Z,45.61
2023-07-01T12:07:11.731Z,45.79
2023-07-01T12:08:15.559Z,46.31
2023-07-01T12:09:33.660Z,46.29
2023-07-01T12:10:38.172Z,45.85
2023-07-01T12:11:48.290Z,46.46
2023-07-01T12:12:53.549Z,46.06
2023-07-01T12:13:57.943Z,45.62
2023-07-01T12:15:02.992Z,45.79
2023-07-01T12:16:07.048Z,46.01
2023-07-01T12:17:25.091Z,45.66
2023-07-01T12:18:29.383Z,45.78
2023-07-01T12:19:33.913Z,45.75
2023-07-01T12:20:37.695Z,45.76
2023-07-01T12:21:41.533Z,45.54
2023-07-01T12:22:45.186Z,46.00
2023-07-01T12:23:49.019Z,45.83
2023-07-01T12:24:56.091Z,46.48
2023-07-01T12:25:59.994Z,46.32
2023-07-01T12:27:04.913Z,45.96
2023-07-01T12:28:10.221Z,46.44
2023-07-01T12:29:14.028Z,46.08
2023-07-01T12:30:17.703Z,46.02
2023-07-01T12:31:21.493Z,46.10
2023-07-01T12:32:25.420Z,46.06
2023-07-01T12:33:29.174Z,45.97
2023-07-01T12:34:32.829Z,45.86
2023-07-01T12:35:36.575Z,45.92
2023-07-01T12:36:40.299Z,45.66
2023-07-01T12:37:45.204Z,45.82
2023-07-01T12:38:51.320Z,45.97
2023-07-01T12:39:58.491Z,46.12
2023-07-01T12:41:04.578Z,46.12
2023-07-01T12:42:09.061Z,46.10
2023-07-01T12:43:14.621Z,46.23
2023-07-01T12:44:18.314Z,45.88
2023-07-01T12:45:22.152Z,45.87
2023-07-01T12:46:25.917Z,45.79
2023-07-01T12:47:30.355Z,45.77
2023-07-01T12:48:34.282Z,46.00
2023-07-01T12:49:37.992Z,46.03
2023-07-01T12:50:41.677Z,45.92
2023-07-01T12:51:45.959Z,46.00
2023-07-01T12:52:54.318Z,46.91
2023-07-01T12:54:11.276Z,46.22
2023-07-01T12:55:20.519Z,46.06
2023-07-01T12:56:24.164Z,46.44
2023-07-01T12:57:27.945Z,46.49
2023-07-01T12:58:33.263Z,46.79
2023-07-01T12:59:36.920Z,46.67
2023-07-01T13:00:43.673Z,46.52
2023-07-01T13:01:49.566Z,46.63
2023-07-01T13:02:53.441Z,46.59
2023-07-01T13:03:57.450Z,46.64
2023-07-01T13:05:02.472Z,46.66
2023-07-01T13:06:22.705Z,47.64
2023-07-01T13:07:31.043Z,46.91
2023-07-01T13:08:35.549Z,46.69
2023-07-01T13:09:41.882Z,47.18
2023-07-01T13:10:45.533Z,46.71
2023-07-01T13:11:49.293Z,46.29
2023-07-01T13:12:57.041Z,46.91
2023-07-01T13:14:04.414Z,47.53
2023-07-01T13:15:24.650Z,47.00
2023-07-01T13:16:32.564Z,47.52
2023-07-01T13:17:40.225Z,47.69
2023-07-01T13:18:44.396Z,46.74
2023-07-01T13:19:48.202Z,46.95
2023-07-01T13:20:52.179Z,47.01
2023-07-01T13:21:55.838Z,47.13
2023-07-01T13:22:59.972Z,47.17
2023-07-01T13:24:05.640Z,47.27
2023-07-01T13:25:18.132Z,47.03
2023-07-01T13:26:21.806Z,47.21
2023-07-01T13:27:25.624Z,47.45
2023-07-01T13:28:29.373Z,47.27
2023-07-01T13:29:36.734Z,47.40
2023-07-01T13:30:48.057Z,48.75
2023-07-01T13:31:52.706Z,47.09
2023-07-01T13:32:56.411Z,47.68
2023-07-01T13:34:02.563Z,47.47
2023-07-01T13:35:07.536Z,47.37
2023-07-01T13:36:13.640Z,47.51
2023-07-01T13:37:20.650Z,47.94
2023-07-01T13:38:24.976Z,47.75
2023-07-01T13:39:43.243Z,47.67
2023-07-01T13:40:48.501Z,47.54
2023-07-01T13:41:52.255Z,47.71
2023-07-01T13:42:55.895Z,47.79
2023-07-01T13:44:03.205Z,47.77
2023-07-01T13:45:19.737Z,48.42
2023-07-01T13:46:23.545Z,47.29
2023-07-01T13:47:45.615Z,48.61
2023-07-01T13:48:51.705Z,47.75
2023-07-01T13:49:55.345Z,47.63
2023-07-01T13:50:59.117Z,47.61
2023-07-01T13:52:03.777Z,47.71
2023-07-01T13:53:09.487Z,47.87
2023-07-01T13:54:18.201Z,47.70
2023-07-01T13:55:23.313Z,47.77
2023-07-01T13:56:27.308Z,48.14
2023-07-01T13:57:31.390Z,47.82
2023-07-01T13:58:45.787Z,47.65
2023-07-01T13:59:49.440Z,47.88
2023-07-01T14:00:55.464Z,47.97
2023-07-01T14:02:01.295Z,48.08
2023-07-01T14:03:08.016Z,48.03
2023-07-01T14:04:14.297Z,48.30